Terminal Aerodrome Forecast
Issued by NWS Corpus Christi, TX

Home | Current Version | Previous Version | Text Only | Print | Product List | Glossary On
Versions: 1 2 3 4 5 6 7 8 9 10 11 12 13 14 15
000
FTUS44 KCRP 221100
TAFCRP
TAF
KCRP 221132Z 2212/2312 17010KT P6SM FEW015
     FM221500 17016G22KT P6SM SCT030
     FM221900 14020G27KT P6SM FEW040
     FM230300 16011KT P6SM FEW018
     FM230600 16004KT P6SM SCT015
      TEMPO 2307/2311 BKN015=

USA.gov is the U.S. government's official web portal to all federal, state and local government web resources and services.